createdAt,value
2019-02-09T00:00:25.992Z,910.64
2019-02-09T00:01:25.973Z,910.59
2019-02-09T00:02:25.928Z,910.60
2019-02-09T00:03:25.904Z,910.58
2019-02-09T00:04:25.873Z,910.55
2019-02-09T00:05:25.980Z,910.54
2019-02-09T00:06:25.807Z,910.56
2019-02-09T00:07:25.913Z,910.60
2019-02-09T00:08:25.738Z,910.67
2019-02-09T00:09:25.740Z,910.69
2019-02-09T00:10:25.717Z,910.76
2019-02-09T00:11:25.819Z,910.73
2019-02-09T00:12:25.663Z,910.72
2019-02-09T00:13:25.635Z,910.73
2019-02-09T00:14:25.585Z,910.77
2019-02-09T00:15:25.555Z,910.78
2019-02-09T00:16:25.483Z,910.82
2019-02-09T00:17:25.451Z,910.81
2019-02-09T00:18:25.492Z,910.78
2019-02-09T00:19:25.430Z,910.78
2019-02-09T00:20:25.359Z,910.79
2019-02-09T00:21:25.334Z,910.80
2019-02-09T00:22:25.302Z,910.80
2019-02-09T00:23:25.309Z,910.79
2019-02-09T00:24:25.254Z,910.83
2019-02-09T00:25:25.425Z,910.81
2019-02-09T00:26:25.166Z,910.82
2019-02-09T00:27:25.140Z,910.88
2019-02-09T00:28:25.335Z,910.84
2019-02-09T00:29:25.075Z,910.88
2019-02-09T00:30:25.064Z,910.92
2019-02-09T00:32:24.988Z,910.96
2019-02-09T00:33:24.948Z,911.01
2019-02-09T00:34:24.915Z,911.03
2019-02-09T00:35:24.894Z,910.99
2019-02-09T00:36:24.854Z,910.98
2019-02-09T00:37:25.079Z,910.99
2019-02-09T00:38:24.785Z,910.98
2019-02-09T00:39:24.775Z,910.97
2019-02-09T00:40:24.801Z,910.98
2019-02-09T00:41:24.690Z,910.99
2019-02-09T00:42:24.671Z,911.03
2019-02-09T00:43:24.976Z,911.07
2019-02-09T00:44:24.603Z,911.13
2019-02-09T00:45:24.577Z,911.15
2019-02-09T00:46:24.529Z,911.22
2019-02-09T00:47:24.500Z,911.23
2019-02-09T00:48:24.489Z,911.22
2019-02-09T00:49:24.651Z,911.24
2019-02-09T00:50:24.397Z,911.22
2019-02-09T00:51:24.370Z,911.28
2019-02-09T00:52:24.336Z,911.27
2019-02-09T00:53:24.320Z,911.27
2019-02-09T00:54:24.273Z,911.26
2019-02-09T00:56:24.213Z,911.28
2019-02-09T00:57:24.198Z,911.26
2019-02-09T00:58:24.142Z,911.31
2019-02-09T00:59:24.125Z,911.29
2019-02-09T01:01:24.064Z,911.30
2019-02-09T01:02:24.019Z,911.33
2019-02-09T01:03:23.997Z,911.31
2019-02-09T01:04:23.951Z,911.31
2019-02-09T01:05:23.929Z,911.34
2019-02-09T01:06:23.887Z,911.33
2019-02-09T01:07:23.873Z,911.34
2019-02-09T01:08:23.822Z,911.41
2019-02-09T01:09:23.804Z,911.43
2019-02-09T01:10:23.763Z,911.38
2019-02-09T01:11:23.739Z,911.41
2019-02-09T01:12:23.704Z,911.43
2019-02-09T01:13:23.663Z,911.38
2019-02-09T01:14:23.648Z,911.40
2019-02-09T01:15:23.602Z,911.42
2019-02-09T01:16:23.587Z,911.45
2019-02-09T01:17:23.544Z,911.45
2019-02-09T01:18:23.512Z,911.48
2019-02-09T01:19:23.483Z,911.45
2019-02-09T01:20:23.656Z,911.49
2019-02-09T01:21:23.437Z,911.52
2019-02-09T01:22:23.380Z,911.50
2019-02-09T01:23:23.343Z,911.50
2019-02-09T01:24:23.381Z,911.52
2019-02-09T01:25:23.292Z,911.48
2019-02-09T01:26:23.267Z,911.49
2019-02-09T01:27:23.224Z,911.50
2019-02-09T01:28:23.191Z,911.53
2019-02-09T01:29:23.160Z,911.56
2019-02-09T01:30:23.116Z,911.57
2019-02-09T01:31:23.090Z,911.60
2019-02-09T01:32:23.082Z,911.58
2019-02-09T01:33:23.047Z,911.63
2019-02-09T01:34:23.008Z,911.63
2019-02-09T01:35:22.968Z,911.66
2019-02-09T01:36:22.933Z,911.72
2019-02-09T01:37:22.901Z,911.74
2019-02-09T01:38:22.863Z,911.72
2019-02-09T01:39:22.839Z,911.77
2019-02-09T01:40:22.804Z,911.78
2019-02-09T01:41:22.791Z,911.78
2019-02-09T01:42:22.898Z,911.79
2019-02-09T01:43:22.709Z,911.78
2019-02-09T01:44:22.670Z,911.74
2019-02-09T01:45:22.651Z,911.77
2019-02-09T01:46:22.610Z,911.75
2019-02-09T01:47:22.578Z,911.74
2019-02-09T01:48:22.554Z,911.74
2019-02-09T01:49:22.516Z,911.74
2019-02-09T01:50:22.487Z,911.75
2019-02-09T01:51:22.447Z,911.74
2019-02-09T01:52:22.421Z,911.71
2019-02-09T01:53:22.382Z,911.73
2019-02-09T01:54:22.349Z,911.73
2019-02-09T01:55:22.365Z,911.74
2019-02-09T01:56:22.289Z,911.72
2019-02-09T01:57:22.259Z,911.71
2019-02-09T01:58:22.224Z,911.73
2019-02-09T01:59:22.204Z,911.71
2019-02-09T02:00:22.162Z,911.72
2019-02-09T02:01:22.146Z,911.73
2019-02-09T02:02:22.103Z,911.72
2019-02-09T02:03:22.077Z,911.74
2019-02-09T02:04:22.032Z,911.77
2019-02-09T02:05:22.008Z,911.79
2019-02-09T02:06:21.986Z,911.81
2019-02-09T02:07:21.942Z,911.76
2019-02-09T02:08:22.078Z,911.79
2019-02-09T02:09:21.876Z,911.80
2019-02-09T02:10:21.851Z,911.77
2019-02-09T02:11:21.822Z,911.77
2019-02-09T02:12:21.793Z,911.79
2019-02-09T02:13:21.741Z,911.78
2019-02-09T02:14:22.119Z,911.76
2019-02-09T02:15:21.679Z,911.80
2019-02-09T02:16:21.686Z,911.82
2019-02-09T02:17:21.612Z,911.81
2019-02-09T02:18:21.581Z,911.81
2019-02-09T02:19:21.557Z,911.81
2019-02-09T02:20:21.916Z,911.83
2019-02-09T02:21:21.511Z,911.81
2019-02-09T02:22:21.471Z,911.85
2019-02-09T02:23:21.637Z,911.86
2019-02-09T02:24:21.388Z,911.88
2019-02-09T02:25:21.357Z,911.87
2019-02-09T02:26:21.337Z,911.89
2019-02-09T02:27:21.296Z,911.92
2019-02-09T02:28:21.265Z,911.93
2019-02-09T02:29:21.228Z,911.93
2019-02-09T02:30:22.835Z,911.89
2019-02-09T02:31:21.165Z,911.90
2019-02-09T02:32:21.159Z,911.87
2019-02-09T02:33:21.104Z,911.84
2019-02-09T02:34:21.063Z,911.87
2019-02-09T02:35:21.048Z,911.86
2019-02-09T02:36:21.004Z,911.83
2019-02-09T02:37:20.975Z,911.83
2019-02-09T02:38:22.150Z,911.74
2019-02-09T02:39:20.901Z,911.72
2019-02-09T02:40:20.867Z,911.73
2019-02-09T02:41:20.991Z,911.75
2019-02-09T02:42:20.803Z,911.76
2019-02-09T02:43:20.786Z,911.78
2019-02-09T02:44:20.756Z,911.79
2019-02-09T02:45:20.722Z,911.83
2019-02-09T02:46:20.683Z,911.81
2019-02-09T02:47:20.804Z,911.83
2019-02-09T02:48:20.618Z,911.83
2019-02-09T02:49:20.583Z,911.86
2019-02-09T02:50:20.621Z,911.85
2019-02-09T02:51:20.530Z,911.86
2019-02-09T02:52:20.486Z,911.83
2019-02-09T02:53:20.462Z,911.82
2019-02-09T02:54:20.422Z,911.81
2019-02-09T02:55:20.398Z,911.81
2019-02-09T02:56:20.381Z,911.79
2019-02-09T02:57:20.322Z,911.78
2019-02-09T02:59:20.271Z,911.82
2019-02-09T03:00:20.232Z,911.79
2019-02-09T03:01:20.241Z,911.80
2019-02-09T03:02:20.170Z,911.78
2019-02-09T03:03:20.126Z,911.82
2019-02-09T03:04:20.105Z,911.83
2019-02-09T03:05:20.067Z,911.82
2019-02-09T03:06:20.042Z,911.80
2019-02-09T03:07:20.002Z,911.85
2019-02-09T03:08:19.973Z,911.84
2019-02-09T03:09:19.945Z,911.83
2019-02-09T03:10:19.913Z,911.84
2019-02-09T03:11:19.871Z,911.83
2019-02-09T03:12:19.909Z,911.80
2019-02-09T03:13:19.814Z,911.82
2019-02-09T03:14:19.937Z,911.80
2019-02-09T03:15:19.755Z,911.82
2019-02-09T03:16:19.714Z,911.83
2019-02-09T03:17:19.691Z,911.80
2019-02-09T03:18:19.679Z,911.83
2019-02-09T03:19:19.656Z,911.82
2019-02-09T03:20:19.605Z,911.84
2019-02-09T03:21:19.556Z,911.84
2019-02-09T03:22:19.524Z,911.83
2019-02-09T03:23:19.498Z,911.84
2019-02-09T03:24:19.463Z,911.82
2019-02-09T03:25:19.500Z,911.82
2019-02-09T03:26:19.388Z,911.82
2019-02-09T03:27:19.457Z,911.78
2019-02-09T03:28:19.326Z,911.78
2019-02-09T03:29:19.286Z,911.73
2019-02-09T03:30:19.264Z,911.74
2019-02-09T03:31:19.235Z,911.76
2019-02-09T03:32:19.195Z,911.73
2019-02-09T03:33:19.160Z,911.71
2019-02-09T03:34:19.126Z,911.74
2019-02-09T03:35:19.112Z,911.71
2019-02-09T03:36:19.071Z,911.72
2019-02-09T03:37:19.030Z,911.75
2019-02-09T03:38:18.997Z,911.77
2019-02-09T03:39:19.003Z,911.83
2019-02-09T03:40:18.946Z,911.83
2019-02-09T03:41:18.900Z,911.78
2019-02-09T03:42:18.879Z,911.76
2019-02-09T03:43:18.837Z,911.71
2019-02-09T03:44:18.826Z,911.69
2019-02-09T03:45:18.777Z,911.64
2019-02-09T03:46:18.767Z,911.63
2019-02-09T03:47:18.712Z,911.58
2019-02-09T03:48:18.678Z,911.58
2019-02-09T03:49:18.654Z,911.55
2019-02-09T03:50:18.717Z,911.57
2019-02-09T03:51:18.599Z,911.54
2019-02-09T03:52:18.912Z,911.56
2019-02-09T03:53:18.533Z,911.53
2019-02-09T03:54:18.483Z,911.49
2019-02-09T03:55:18.465Z,911.46
2019-02-09T03:56:18.424Z,911.48
2019-02-09T03:57:18.389Z,911.43
2019-02-09T03:58:18.362Z,911.37
2019-02-09T03:59:18.321Z,911.35
2019-02-09T04:00:18.295Z,911.28
2019-02-09T04:01:18.265Z,911.29
2019-02-09T04:02:18.222Z,911.29
2019-02-09T04:03:18.211Z,911.22
2019-02-09T04:04:18.168Z,911.20
2019-02-09T04:05:18.127Z,911.20
2019-02-09T04:06:18.099Z,911.19
2019-02-09T04:07:18.073Z,911.18
2019-02-09T04:08:18.034Z,911.13
2019-02-09T04:09:18.000Z,911.14
2019-02-09T04:10:17.972Z,911.15
2019-02-09T04:11:17.933Z,911.16
2019-02-09T04:12:17.903Z,911.13
2019-02-09T04:13:17.914Z,911.15
2019-02-09T04:14:17.861Z,911.14
2019-02-09T04:15:17.818Z,911.14
2019-02-09T04:16:17.777Z,911.10
2019-02-09T04:17:17.746Z,911.09
2019-02-09T04:18:17.725Z,911.06
2019-02-09T04:19:17.770Z,911.00
2019-02-09T04:20:17.645Z,910.98
2019-02-09T04:21:17.613Z,910.97
2019-02-09T04:22:17.585Z,910.95
2019-02-09T04:23:17.644Z,910.91
2019-02-09T04:24:17.526Z,910.90
2019-02-09T04:25:17.482Z,910.87
2019-02-09T04:26:17.448Z,910.86
2019-02-09T04:27:17.421Z,910.87
2019-02-09T04:28:17.417Z,910.82
2019-02-09T04:29:17.361Z,910.81
2019-02-09T04:30:17.330Z,910.79
2019-02-09T04:31:17.289Z,910.76
2019-02-09T04:32:17.265Z,910.77
2019-02-09T04:33:17.231Z,910.72
2019-02-09T04:34:17.189Z,910.71
2019-02-09T04:35:17.156Z,910.71
2019-02-09T04:36:17.138Z,910.62
2019-02-09T04:37:17.092Z,910.58
2019-02-09T04:38:17.080Z,910.50
2019-02-09T04:39:17.028Z,910.49
2019-02-09T04:40:17.001Z,910.40
2019-02-09T04:41:16.972Z,910.37
2019-02-09T04:42:16.934Z,910.35
2019-02-09T04:43:16.939Z,910.37
2019-02-09T04:44:16.868Z,910.30
2019-02-09T04:45:16.840Z,910.28
2019-02-09T04:46:16.809Z,910.30
2019-02-09T04:47:16.771Z,910.24
2019-02-09T04:48:16.734Z,910.21
2019-02-09T04:49:16.702Z,910.21
2019-02-09T04:50:16.671Z,910.18
2019-02-09T04:51:16.637Z,910.18
2019-02-09T04:52:16.647Z,910.19
2019-02-09T04:53:16.594Z,910.15
2019-02-09T04:54:16.777Z,910.11
2019-02-09T04:55:16.628Z,910.10
2019-02-09T04:56:16.507Z,910.03
2019-02-09T04:57:16.448Z,910.02
2019-02-09T04:58:16.411Z,909.98
2019-02-09T04:59:16.380Z,909.91
2019-02-09T05:00:16.348Z,909.89
2019-02-09T05:01:16.324Z,909.86
2019-02-09T05:02:16.301Z,909.84
2019-02-09T05:03:16.249Z,909.81
2019-02-09T05:04:16.216Z,909.81
2019-02-09T05:05:16.183Z,909.80
2019-02-09T05:06:16.159Z,909.77
2019-02-09T05:07:16.143Z,909.75
2019-02-09T05:08:16.092Z,909.72
2019-02-09T05:09:16.115Z,909.73
2019-02-09T05:10:16.226Z,909.73
2019-02-09T05:11:15.989Z,909.72
2019-02-09T05:12:15.960Z,909.71
2019-02-09T05:13:16.016Z,909.69
2019-02-09T05:14:15.898Z,909.70
2019-02-09T05:15:15.891Z,909.67
2019-02-09T05:16:15.827Z,909.65
2019-02-09T05:17:15.792Z,909.61
2019-02-09T05:18:15.764Z,909.54
2019-02-09T05:19:15.732Z,909.50
2019-02-09T05:20:15.716Z,909.49
2019-02-09T05:21:15.664Z,909.47
2019-02-09T05:22:15.631Z,909.44
2019-02-09T05:23:15.609Z,909.40
2019-02-09T05:24:15.577Z,909.39
2019-02-09T05:25:15.540Z,909.38
2019-02-09T05:26:15.535Z,909.34
2019-02-09T05:27:15.722Z,909.34
2019-02-09T05:28:15.443Z,909.32
2019-02-09T05:29:15.408Z,909.26
2019-02-09T05:30:15.382Z,909.27
2019-02-09T05:31:22.883Z,909.26
2019-02-09T05:32:15.302Z,909.26
2019-02-09T05:33:15.275Z,909.20
2019-02-09T05:34:15.246Z,909.25
2019-02-09T05:35:15.217Z,909.24
2019-02-09T05:36:15.177Z,909.24
2019-02-09T05:37:15.192Z,909.24
2019-02-09T05:38:15.179Z,909.28
2019-02-09T05:39:15.078Z,909.29
2019-02-09T05:40:15.044Z,909.30
2019-02-09T05:41:15.065Z,909.24
2019-02-09T05:42:15.004Z,909.28
2019-02-09T05:43:14.960Z,909.27
2019-02-09T05:44:14.925Z,909.32
2019-02-09T05:45:14.885Z,909.28
2019-02-09T05:46:14.885Z,909.29
2019-02-09T05:47:14.824Z,909.26
2019-02-09T05:48:14.821Z,909.25
2019-02-09T05:49:14.758Z,909.28
2019-02-09T05:50:14.750Z,909.28
2019-02-09T05:51:14.732Z,909.28
2019-02-09T05:52:14.691Z,909.29
2019-02-09T05:53:14.646Z,909.30
2019-02-09T05:54:14.799Z,909.28
2019-02-09T05:55:14.579Z,909.30
2019-02-09T05:56:14.555Z,909.31
2019-02-09T05:57:14.522Z,909.26
2019-02-09T05:58:14.469Z,909.27
2019-02-09T05:59:14.458Z,909.25
2019-02-09T06:00:14.429Z,909.24
2019-02-09T06:01:14.359Z,909.27
2019-02-09T06:02:14.354Z,909.19
2019-02-09T06:03:14.318Z,909.18
2019-02-09T06:04:14.291Z,909.14
2019-02-09T06:05:14.244Z,909.13
2019-02-09T06:06:14.223Z,909.09
2019-02-09T06:07:14.373Z,909.04
2019-02-09T06:08:14.165Z,909.02
2019-02-09T06:09:14.124Z,908.99
2019-02-09T06:10:14.235Z,909.02
2019-02-09T06:11:14.046Z,909.03
2019-02-09T06:12:14.084Z,909.02
2019-02-09T06:13:13.978Z,909.05
2019-02-09T06:14:13.957Z,908.97
2019-02-09T06:15:13.927Z,908.97
2019-02-09T06:17:13.868Z,908.93
2019-02-09T06:18:13.829Z,908.91
2019-02-09T06:19:13.784Z,908.87
2019-02-09T06:20:13.758Z,908.83
2019-02-09T06:21:13.734Z,908.87
2019-02-09T06:22:13.700Z,908.82
2019-02-09T06:23:13.679Z,908.84
2019-02-09T06:24:13.641Z,908.84
2019-02-09T06:25:13.611Z,908.85
2019-02-09T06:26:13.559Z,908.85
2019-02-09T06:27:13.530Z,908.86
2019-02-09T06:28:13.506Z,908.87
2019-02-09T06:29:13.451Z,908.85
2019-02-09T06:30:13.434Z,908.81
2019-02-09T06:31:13.406Z,908.82
2019-02-09T06:32:13.372Z,908.82
2019-02-09T06:33:13.323Z,908.83
2019-02-09T06:34:13.303Z,908.85
2019-02-09T06:35:13.271Z,908.81
2019-02-09T06:36:13.215Z,908.84
2019-02-09T06:37:13.204Z,908.86
2019-02-09T06:38:13.169Z,908.85
2019-02-09T06:39:13.130Z,908.88
2019-02-09T06:40:13.107Z,908.88
2019-02-09T06:41:13.124Z,908.92
2019-02-09T06:42:13.040Z,908.92
2019-02-09T06:43:13.213Z,908.95
2019-02-09T06:44:12.971Z,908.97
2019-02-09T06:45:12.923Z,908.98
2019-02-09T06:46:12.893Z,909.00
2019-02-09T06:47:12.853Z,908.99
2019-02-09T06:48:12.841Z,909.00
2019-02-09T06:49:13.015Z,908.99
2019-02-09T06:50:12.786Z,908.99
2019-02-09T06:51:12.759Z,909.01
2019-02-09T06:52:12.703Z,909.03
2019-02-09T06:53:12.690Z,909.05
2019-02-09T06:54:12.642Z,909.05
2019-02-09T06:55:12.615Z,909.06
2019-02-09T06:56:12.582Z,909.04
2019-02-09T06:57:12.548Z,909.05
2019-02-09T06:58:12.535Z,909.00
2019-02-09T06:59:12.477Z,908.97
2019-02-09T07:00:12.468Z,909.03
2019-02-09T07:01:12.422Z,909.00
2019-02-09T07:02:12.374Z,909.00
2019-02-09T07:03:12.356Z,908.98
2019-02-09T07:04:12.323Z,909.02
2019-02-09T07:05:12.580Z,909.01
2019-02-09T07:06:12.279Z,909.00
2019-02-09T07:07:12.201Z,909.02
2019-02-09T07:08:12.186Z,909.03
2019-02-09T07:09:12.171Z,909.05
2019-02-09T07:10:12.209Z,909.05
2019-02-09T07:11:12.264Z,909.07
2019-02-09T07:12:12.053Z,909.10
2019-02-09T07:13:12.025Z,909.11
2019-02-09T07:14:12.309Z,909.10
2019-02-09T07:15:11.967Z,909.10
2019-02-09T07:16:11.953Z,909.09
2019-02-09T07:17:12.024Z,909.10
2019-02-09T07:18:11.872Z,909.15
2019-02-09T07:19:11.824Z,909.15
2019-02-09T07:20:11.837Z,909.16
2019-02-09T07:21:11.777Z,909.17
2019-02-09T07:22:11.727Z,909.22
2019-02-09T07:23:11.688Z,909.28
2019-02-09T07:24:11.654Z,909.33
2019-02-09T07:25:11.609Z,909.37
2019-02-09T07:26:11.589Z,909.38
2019-02-09T07:27:11.560Z,909.40
2019-02-09T07:28:11.537Z,909.39
2019-02-09T07:29:11.472Z,909.42
2019-02-09T07:30:11.469Z,909.40
2019-02-09T07:31:11.424Z,909.46
2019-02-09T07:32:11.386Z,909.43
2019-02-09T07:33:11.609Z,909.46
2019-02-09T07:34:11.341Z,909.49
2019-02-09T07:35:11.306Z,909.48
2019-02-09T07:36:11.274Z,909.49
2019-02-09T07:37:11.238Z,909.52
2019-02-09T07:38:11.205Z,909.51
2019-02-09T07:39:11.148Z,909.57
2019-02-09T07:40:11.145Z,909.57
2019-02-09T07:41:11.103Z,909.58
2019-02-09T07:42:11.081Z,909.60
2019-02-09T07:43:11.014Z,909.65
2019-02-09T07:44:11.160Z,909.63
2019-02-09T07:45:10.978Z,909.65
2019-02-09T07:46:10.922Z,909.69
2019-02-09T07:47:10.902Z,909.71
2019-02-09T07:48:10.870Z,909.73
2019-02-09T07:49:10.822Z,909.78
2019-02-09T07:50:10.786Z,909.80
2019-02-09T07:51:10.791Z,909.81
2019-02-09T07:52:10.748Z,909.82
2019-02-09T07:53:10.728Z,909.86
2019-02-09T07:54:10.680Z,909.88
2019-02-09T07:55:10.639Z,909.92
2019-02-09T07:56:10.622Z,909.96
2019-02-09T07:57:10.571Z,910.02
2019-02-09T07:58:10.540Z,910.02
2019-02-09T07:59:10.506Z,910.05
2019-02-09T08:00:10.497Z,910.08
2019-02-09T08:01:10.535Z,910.07
2019-02-09T08:02:10.425Z,910.10
2019-02-09T08:03:10.427Z,910.12
2019-02-09T08:04:10.350Z,910.07
2019-02-09T08:05:10.317Z,910.09
2019-02-09T08:06:10.276Z,910.12
2019-02-09T08:07:10.260Z,910.10
2019-02-09T08:08:10.223Z,910.11
2019-02-09T08:09:10.190Z,910.09
2019-02-09T08:10:10.302Z,910.08
2019-02-09T08:11:10.157Z,910.10
2019-02-09T08:12:10.083Z,910.10
2019-02-09T08:13:10.024Z,910.11
2019-02-09T08:14:10.001Z,910.12
2019-02-09T08:15:09.965Z,910.11
2019-02-09T08:16:10.245Z,910.13
2019-02-09T08:17:09.901Z,910.14
2019-02-09T08:18:09.905Z,910.11
2019-02-09T08:19:09.924Z,910.16
2019-02-09T08:20:09.847Z,910.14
2019-02-09T08:21:09.787Z,910.16
2019-02-09T08:22:09.763Z,910.17
2019-02-09T08:23:09.722Z,910.15
2019-02-09T08:24:09.669Z,910.17
2019-02-09T08:25:09.650Z,910.16
2019-02-09T08:26:09.614Z,910.13
2019-02-09T08:27:09.589Z,910.14
2019-02-09T08:28:09.548Z,910.16
2019-02-09T08:29:09.554Z,910.16
2019-02-09T08:30:09.483Z,910.18
2019-02-09T08:31:09.451Z,910.23
2019-02-09T08:33:09.382Z,910.22
2019-02-09T08:34:09.343Z,910.22
2019-02-09T08:35:09.334Z,910.20
2019-02-09T08:36:09.306Z,910.21
2019-02-09T08:37:09.238Z,910.19
2019-02-09T08:38:09.210Z,910.20
2019-02-09T08:39:09.190Z,910.22
2019-02-09T08:40:09.149Z,910.21
2019-02-09T08:41:09.108Z,910.22
2019-02-09T08:42:09.093Z,910.27
2019-02-09T08:43:09.056Z,910.31
2019-02-09T08:44:09.009Z,910.30
2019-02-09T08:45:08.988Z,910.31
2019-02-09T08:46:08.978Z,910.36
2019-02-09T08:47:08.912Z,910.37
2019-02-09T08:48:08.867Z,910.38
2019-02-09T08:49:08.866Z,910.36
2019-02-09T08:50:08.814Z,910.34
2019-02-09T08:51:08.795Z,910.35
2019-02-09T08:52:08.758Z,910.39
2019-02-09T08:53:08.733Z,910.36
2019-02-09T08:54:08.688Z,910.42
2019-02-09T08:55:08.675Z,910.42
2019-02-09T08:56:08.630Z,910.47
2019-02-09T08:57:08.583Z,910.46
2019-02-09T08:58:08.556Z,910.48
2019-02-09T08:59:08.530Z,910.51
2019-02-09T09:00:08.495Z,910.48
2019-02-09T09:01:08.453Z,910.50
2019-02-09T09:02:08.449Z,910.49
2019-02-09T09:03:08.380Z,910.52
2019-02-09T09:04:08.356Z,910.53
2019-02-09T09:05:09.746Z,910.54
2019-02-09T09:06:08.291Z,910.53
2019-02-09T09:07:08.264Z,910.56
2019-02-09T09:08:08.236Z,910.61
2019-02-09T09:09:08.199Z,910.62
2019-02-09T09:10:08.579Z,910.67
2019-02-09T09:11:08.104Z,910.69
2019-02-09T09:12:08.099Z,910.71
2019-02-09T09:13:08.042Z,910.72
2019-02-09T09:14:08.046Z,910.70
2019-02-09T09:15:08.008Z,910.73
2019-02-09T09:16:08.124Z,910.72
2019-02-09T09:17:07.929Z,910.72
2019-02-09T09:18:07.886Z,910.78
2019-02-09T09:19:07.862Z,910.79
2019-02-09T09:20:07.824Z,910.89
2019-02-09T09:21:07.821Z,910.90
2019-02-09T09:22:07.779Z,910.95
2019-02-09T09:23:07.725Z,911.01
2019-02-09T09:24:07.698Z,911.01
2019-02-09T09:25:07.660Z,911.04
2019-02-09T09:26:07.635Z,911.05
2019-02-09T09:27:07.824Z,911.08
2019-02-09T09:28:07.579Z,911.10
2019-02-09T09:29:07.519Z,911.06
2019-02-09T09:30:07.501Z,911.03
2019-02-09T09:31:07.492Z,911.03
2019-02-09T09:32:07.434Z,911.05
2019-02-09T09:33:08.655Z,911.02
2019-02-09T09:34:07.397Z,911.07
2019-02-09T09:35:07.361Z,911.05
2019-02-09T09:36:07.548Z,911.04
2019-02-09T09:37:07.271Z,911.03
2019-02-09T09:38:07.254Z,911.01
2019-02-09T09:39:07.212Z,911.03
2019-02-09T09:40:07.178Z,911.00
2019-02-09T09:41:07.148Z,911.02
2019-02-09T09:42:07.108Z,911.02
2019-02-09T09:43:07.073Z,911.06
2019-02-09T09:44:07.042Z,911.07
2019-02-09T09:45:06.989Z,911.11
2019-02-09T09:46:06.947Z,911.13
2019-02-09T09:47:06.949Z,911.17
2019-02-09T09:48:06.903Z,911.17
2019-02-09T09:49:06.882Z,911.15
2019-02-09T09:50:06.885Z,911.17
2019-02-09T09:51:06.832Z,911.18
2019-02-09T09:52:06.761Z,911.13
2019-02-09T09:53:06.754Z,911.10
2019-02-09T09:54:06.704Z,911.10
2019-02-09T09:55:06.702Z,911.11
2019-02-09T09:56:06.631Z,911.08
2019-02-09T09:57:06.614Z,911.10
2019-02-09T09:58:06.572Z,911.13
2019-02-09T09:59:06.517Z,911.16
2019-02-09T10:00:06.506Z,911.19
2019-02-09T10:01:06.485Z,911.20
2019-02-09T10:02:06.442Z,911.16
2019-02-09T10:03:06.504Z,911.17
2019-02-09T10:05:06.346Z,911.20
2019-02-09T10:06:06.313Z,911.20
2019-02-09T10:07:06.266Z,911.23
2019-02-09T10:08:06.251Z,911.24
2019-02-09T10:09:06.274Z,911.27
2019-02-09T10:10:06.184Z,911.30
2019-02-09T10:11:06.175Z,911.32
2019-02-09T10:12:06.112Z,911.36
2019-02-09T10:13:06.125Z,911.39
2019-02-09T10:14:08.970Z,911.36
2019-02-09T10:15:06.018Z,911.38
2019-02-09T10:16:05.983Z,911.40
2019-02-09T10:17:05.942Z,911.38
2019-02-09T10:18:05.933Z,911.40
2019-02-09T10:19:05.886Z,911.37
2019-02-09T10:20:05.845Z,911.37
2019-02-09T10:21:05.831Z,911.42
2019-02-09T10:22:05.799Z,911.45
2019-02-09T10:23:05.774Z,911.40
2019-02-09T10:24:05.780Z,911.42
2019-02-09T10:25:05.694Z,911.47
2019-02-09T10:26:05.743Z,911.43
2019-02-09T10:27:05.628Z,911.37
2019-02-09T10:28:05.610Z,911.48
2019-02-09T10:29:05.629Z,911.48
2019-02-09T10:30:05.535Z,911.44
2019-02-09T10:31:05.486Z,911.47
2019-02-09T10:32:05.468Z,911.48
2019-02-09T10:33:05.473Z,911.47
2019-02-09T10:34:05.426Z,911.49
2019-02-09T10:35:05.370Z,911.43
2019-02-09T10:36:05.352Z,911.47
2019-02-09T10:37:05.301Z,911.50
2019-02-09T10:38:05.297Z,911.51
2019-02-09T10:39:05.246Z,911.55
2019-02-09T10:40:05.228Z,911.55
2019-02-09T10:41:05.544Z,911.53
2019-02-09T10:42:05.152Z,911.52
2019-02-09T10:43:05.129Z,911.53
2019-02-09T10:44:05.101Z,911.57
2019-02-09T10:45:05.065Z,911.59
2019-02-09T10:46:05.025Z,911.62
2019-02-09T10:47:05.510Z,911.62
2019-02-09T10:48:04.965Z,911.68
2019-02-09T10:49:04.918Z,911.66
2019-02-09T10:50:04.885Z,911.71
2019-02-09T10:51:04.844Z,911.72
2019-02-09T10:52:04.841Z,911.75
2019-02-09T10:53:04.951Z,911.75
2019-02-09T10:54:04.766Z,911.75
2019-02-09T10:55:04.749Z,911.73
2019-02-09T10:56:04.703Z,911.73
2019-02-09T10:57:04.668Z,911.74
2019-02-09T10:58:04.645Z,911.79
2019-02-09T10:59:04.617Z,911.78
2019-02-09T11:00:04.583Z,911.81
2019-02-09T11:01:04.551Z,911.85
2019-02-09T11:02:04.538Z,911.84
2019-02-09T11:03:04.492Z,911.90
2019-02-09T11:04:04.470Z,911.91
2019-02-09T11:05:04.426Z,911.86
2019-02-09T11:06:04.398Z,911.84
2019-02-09T11:07:04.351Z,911.84
2019-02-09T11:08:04.320Z,911.85
2019-02-09T11:09:04.288Z,911.87
2019-02-09T11:10:04.259Z,911.85
2019-02-09T11:11:04.233Z,911.87
2019-02-09T11:12:04.191Z,911.92
2019-02-09T11:13:04.165Z,911.95
2019-02-09T11:14:04.295Z,911.97
2019-02-09T11:15:04.116Z,911.98
2019-02-09T11:16:04.105Z,911.96
2019-02-09T11:17:04.046Z,912.02
2019-02-09T11:18:04.032Z,912.01
2019-02-09T11:19:03.986Z,912.01
2019-02-09T11:20:03.942Z,912.04
2019-02-09T11:21:03.917Z,912.05
2019-02-09T11:22:03.910Z,912.07
2019-02-09T11:23:03.870Z,912.06
2019-02-09T11:24:03.837Z,912.12
2019-02-09T11:25:03.829Z,912.14
2019-02-09T11:26:03.765Z,912.13
2019-02-09T11:27:03.741Z,912.15
2019-02-09T11:28:03.724Z,912.18
2019-02-09T11:29:03.686Z,912.22
2019-02-09T11:30:03.665Z,912.17
2019-02-09T11:31:03.629Z,912.19
2019-02-09T11:32:03.602Z,912.20
2019-02-09T11:33:03.560Z,912.24
2019-02-09T11:34:03.522Z,912.31
2019-02-09T11:35:03.503Z,912.29
2019-02-09T11:36:03.661Z,912.36
2019-02-09T11:37:03.439Z,912.35
2019-02-09T11:38:03.411Z,912.38
2019-02-09T11:39:03.408Z,912.41
2019-02-09T11:40:03.329Z,912.40
2019-02-09T11:41:03.299Z,912.39
2019-02-09T11:42:03.287Z,912.43
2019-02-09T11:43:03.264Z,912.41
2019-02-09T11:44:03.237Z,912.36
2019-02-09T11:45:03.201Z,912.38
2019-02-09T11:46:03.158Z,912.30
2019-02-09T11:47:03.292Z,912.36
2019-02-09T11:48:03.117Z,912.39
2019-02-09T11:49:03.090Z,912.46
2019-02-09T11:50:03.063Z,912.47
2019-02-09T11:51:03.035Z,912.45
2019-02-09T11:52:03.015Z,912.47
2019-02-09T11:53:03.163Z,912.42
2019-02-09T11:54:02.939Z,912.36
2019-02-09T11:55:02.897Z,912.34
2019-02-09T11:56:02.884Z,912.32
2019-02-09T11:57:02.831Z,912.30
2019-02-09T11:58:02.812Z,912.29
2019-02-09T12:00:02.755Z,912.29
2019-02-09T12:01:02.780Z,912.28
2019-02-09T12:02:02.685Z,912.26
2019-02-09T12:03:08.502Z,912.22
2019-02-09T12:04:02.706Z,912.25
2019-02-09T12:05:02.624Z,912.25
2019-02-09T12:06:02.598Z,912.21
2019-02-09T12:07:02.551Z,912.23
2019-02-09T12:08:02.551Z,912.24
2019-02-09T12:09:02.512Z,912.24
2019-02-09T12:10:02.481Z,912.26
2019-02-09T12:11:02.452Z,912.30
2019-02-09T12:12:02.418Z,912.26
2019-02-09T12:13:02.401Z,912.31
2019-02-09T12:15:02.342Z,912.35
2019-02-09T12:16:02.323Z,912.34
2019-02-09T12:17:02.284Z,912.37
2019-02-09T12:18:02.251Z,912.37
2019-02-09T12:19:02.211Z,912.41
2019-02-09T12:20:02.386Z,912.46
2019-02-09T12:21:02.145Z,912.49
2019-02-09T12:22:02.115Z,912.45
2019-02-09T12:23:02.096Z,912.48
2019-02-09T12:24:02.072Z,912.48
2019-02-09T12:25:02.055Z,912.48
2019-02-09T12:26:02.185Z,912.52
2019-02-09T12:27:01.971Z,912.54
2019-02-09T12:28:01.964Z,912.55
2019-02-09T12:29:01.936Z,912.56
2019-02-09T12:30:01.893Z,912.55
2019-02-09T12:32:01.878Z,912.57
2019-02-09T12:33:01.863Z,912.54
2019-02-09T12:34:01.793Z,912.56
2019-02-09T12:35:01.746Z,912.58
2019-02-09T12:36:01.714Z,912.56
2019-02-09T12:37:01.693Z,912.61
2019-02-09T12:38:01.678Z,912.61